sensor_id;sensor_type;location;lat;lon;timestamp;temperature;humidity
18581;DHT22;9420;50.876;7.012;2022-12-11T00:01:32;1.00;99.90
18581;DHT22;9420;50.876;7.012;2022-12-11T00:03:59;1.00;99.90
18581;DHT22;9420;50.876;7.012;2022-12-11T00:06:27;0.90;99.90
18581;DHT22;9420;50.876;7.012;2022-12-11T00:08:55;0.90;99.90
18581;DHT22;9420;50.876;7.012;2022-12-11T00:11:22;0.90;99.90
18581;DHT22;9420;50.876;7.012;2022-12-11T00:13:49;0.90;99.90
18581;DHT22;9420;50.876;7.012;2022-12-11T00:16:16;1.00;99.90
18581;DHT22;9420;50.876;7.012;2022-12-11T00:18:43;0.90;99.90
18581;DHT22;9420;50.876;7.012;2022-12-11T00:21:12;0.80;99.90
18581;DHT22;9420;50.876;7.012;2022-12-11T00:23:41;0.90;99.90
18581;DHT22;9420;50.876;7.012;2022-12-11T00:26:11;0.90;99.90
18581;DHT22;9420;50.876;7.012;2022-12-11T00:28:40;0.80;99.90
18581;DHT22;9420;50.876;7.012;2022-12-11T00:31:10;0.90;99.90
18581;DHT22;9420;50.876;7.012;2022-12-11T00:33:39;0.90;99.90
18581;DHT22;9420;50.876;7.012;2022-12-11T00:36:11;0.90;99.90
18581;DHT22;9420;50.876;7.012;2022-12-11T00:38:41;0.80;99.90
18581;DHT22;9420;50.876;7.012;2022-12-11T00:41:08;0.90;99.90
18581;DHT22;9420;50.876;7.012;2022-12-11T00:43:35;0.90;99.90
18581;DHT22;9420;50.876;7.012;2022-12-11T00:46:03;0.90;99.90
18581;DHT22;9420;50.876;7.012;2022-12-11T00:48:30;0.90;99.90
18581;DHT22;9420;50.876;7.012;2022-12-11T00:50:58;1.00;99.90
18581;DHT22;9420;50.876;7.012;2022-12-11T00:53:25;1.00;99.90
18581;DHT22;9420;50.876;7.012;2022-12-11T00:55:53;1.00;99.90
18581;DHT22;9420;50.876;7.012;2022-12-11T00:58:21;1.00;99.90
18581;DHT22;9420;50.876;7.012;2022-12-11T01:00:48;1.00;99.90
18581;DHT22;9420;50.876;7.012;2022-12-11T01:03:16;0.90;99.90
18581;DHT22;9420;50.876;7.012;2022-12-11T01:05:50;0.90;99.90
18581;DHT22;9420;50.876;7.012;2022-12-11T01:08:18;0.90;99.90
18581;DHT22;9420;50.876;7.012;2022-12-11T01:10:45;0.90;99.90
18581;DHT22;9420;50.876;7.012;2022-12-11T01:13:13;1.00;99.90
18581;DHT22;9420;50.876;7.012;2022-12-11T01:15:43;1.00;99.90
18581;DHT22;9420;50.876;7.012;2022-12-11T01:18:12;1.00;99.90
18581;DHT22;9420;50.876;7.012;2022-12-11T01:20:41;1.00;99.90
18581;DHT22;9420;50.876;7.012;2022-12-11T01:23:12;1.00;99.90
18581;DHT22;9420;50.876;7.012;2022-12-11T01:25:39;1.10;99.90
18581;DHT22;9420;50.876;7.012;2022-12-11T01:28:08;1.00;99.90
18581;DHT22;9420;50.876;7.012;2022-12-11T01:30:37;1.00;99.90
18581;DHT22;9420;50.876;7.012;2022-12-11T01:33:06;1.00;99.90
18581;DHT22;9420;50.876;7.012;2022-12-11T01:35:33;1.10;99.90
18581;DHT22;9420;50.876;7.012;2022-12-11T01:38:00;1.10;99.90
18581;DHT22;9420;50.876;7.012;2022-12-11T01:40:27;1.10;99.90
18581;DHT22;9420;50.876;7.012;2022-12-11T01:42:54;1.10;99.90
18581;DHT22;9420;50.876;7.012;2022-12-11T01:45:29;1.10;99.90
18581;DHT22;9420;50.876;7.012;2022-12-11T01:48:06;1.20;99.90
18581;DHT22;9420;50.876;7.012;2022-12-11T01:50:40;1.20;99.90
18581;DHT22;9420;50.876;7.012;2022-12-11T01:53:12;1.10;99.90
18581;DHT22;9420;50.876;7.012;2022-12-11T01:55:45;1.10;99.90
18581;DHT22;9420;50.876;7.012;2022-12-11T01:58:15;1.10;99.90
18581;DHT22;9420;50.876;7.012;2022-12-11T02:00:43;1.00;99.90
18581;DHT22;9420;50.876;7.012;2022-12-11T02:03:12;1.00;99.90
18581;DHT22;9420;50.876;7.012;2022-12-11T02:05:39;1.00;99.90
18581;DHT22;9420;50.876;7.012;2022-12-11T02:08:06;1.00;99.90
18581;DHT22;9420;50.876;7.012;2022-12-11T02:13:34;1.00;99.90
18581;DHT22;9420;50.876;7.012;2022-12-11T02:16:16;1.10;99.90
18581;DHT22;9420;50.876;7.012;2022-12-11T02:18:54;1.00;99.90
18581;DHT22;9420;50.876;7.012;2022-12-11T02:21:30;1.10;99.90
18581;DHT22;9420;50.876;7.012;2022-12-11T02:24:10;1.00;99.90
18581;DHT22;9420;50.876;7.012;2022-12-11T02:27:02;1.00;99.90
18581;DHT22;9420;50.876;7.012;2022-12-11T02:29:46;1.00;99.90
18581;DHT22;9420;50.876;7.012;2022-12-11T02:32:21;1.00;99.90
18581;DHT22;9420;50.876;7.012;2022-12-11T02:34:56;1.00;99.90
18581;DHT22;9420;50.876;7.012;2022-12-11T02:37:30;1.10;99.90
18581;DHT22;9420;50.876;7.012;2022-12-11T02:40:03;1.10;99.90
18581;DHT22;9420;50.876;7.012;2022-12-11T02:42:39;1.00;99.90
18581;DHT22;9420;50.876;7.012;2022-12-11T02:45:11;1.00;99.90
18581;DHT22;9420;50.876;7.012;2022-12-11T02:47:40;1.00;99.90
18581;DHT22;9420;50.876;7.012;2022-12-11T02:50:15;1.00;99.90
18581;DHT22;9420;50.876;7.012;2022-12-11T02:52:48;1.00;99.90
18581;DHT22;9420;50.876;7.012;2022-12-11T02:55:18;0.90;99.90
18581;DHT22;9420;50.876;7.012;2022-12-11T02:57:49;1.00;99.90
18581;DHT22;9420;50.876;7.012;2022-12-11T03:00:19;1.00;99.90
18581;DHT22;9420;50.876;7.012;2022-12-11T03:02:47;1.00;99.90
18581;DHT22;9420;50.876;7.012;2022-12-11T03:05:14;1.10;99.90
18581;DHT22;9420;50.876;7.012;2022-12-11T03:07:43;1.00;99.90
18581;DHT22;9420;50.876;7.012;2022-12-11T03:10:12;1.00;99.90
18581;DHT22;9420;50.876;7.012;2022-12-11T03:12:43;1.00;99.90
18581;DHT22;9420;50.876;7.012;2022-12-11T03:15:15;1.00;99.90
18581;DHT22;9420;50.876;7.012;2022-12-11T03:17:55;1.00;99.90
18581;DHT22;9420;50.876;7.012;2022-12-11T03:20:34;1.00;99.90
18581;DHT22;9420;50.876;7.012;2022-12-11T03:23:11;1.00;99.90
18581;DHT22;9420;50.876;7.012;2022-12-11T03:25:51;1.00;99.90
18581;DHT22;9420;50.876;7.012;2022-12-11T03:28:25;1.10;99.90
18581;DHT22;9420;50.876;7.012;2022-12-11T03:30:57;1.10;99.90
18581;DHT22;9420;50.876;7.012;2022-12-11T03:33:34;1.00;99.90
18581;DHT22;9420;50.876;7.012;2022-12-11T03:36:07;1.00;99.90
18581;DHT22;9420;50.876;7.012;2022-12-11T03:38:40;1.00;99.90
18581;DHT22;9420;50.876;7.012;2022-12-11T03:41:14;1.10;99.90
18581;DHT22;9420;50.876;7.012;2022-12-11T03:43:44;1.00;99.90
18581;DHT22;9420;50.876;7.012;2022-12-11T03:46:16;1.10;99.90
18581;DHT22;9420;50.876;7.012;2022-12-11T03:48:48;1.10;99.90
18581;DHT22;9420;50.876;7.012;2022-12-11T03:51:17;1.10;99.90
18581;DHT22;9420;50.876;7.012;2022-12-11T03:53:46;1.10;99.90
18581;DHT22;9420;50.876;7.012;2022-12-11T03:56:15;1.10;99.90
18581;DHT22;9420;50.876;7.012;2022-12-11T03:58:46;1.00;99.90
18581;DHT22;9420;50.876;7.012;2022-12-11T04:01:13;1.10;99.90
18581;DHT22;9420;50.876;7.012;2022-12-11T04:03:40;1.00;99.90
18581;DHT22;9420;50.876;7.012;2022-12-11T04:06:08;1.10;99.90
18581;DHT22;9420;50.876;7.012;2022-12-11T04:08:36;1.00;99.90
18581;DHT22;9420;50.876;7.012;2022-12-11T04:11:03;1.00;99.90
18581;DHT22;9420;50.876;7.012;2022-12-11T04:13:48;1.00;99.90
18581;DHT22;9420;50.876;7.012;2022-12-11T04:16:35;1.10;99.90
18581;DHT22;9420;50.876;7.012;2022-12-11T04:19:01;1.00;99.90
18581;DHT22;9420;50.876;7.012;2022-12-11T04:21:47;1.10;99.90
18581;DHT22;9420;50.876;7.012;2022-12-11T04:24:32;1.10;99.90
18581;DHT22;9420;50.876;7.012;2022-12-11T04:26:59;1.10;99.90
18581;DHT22;9420;50.876;7.012;2022-12-11T04:29:26;1.10;99.90
18581;DHT22;9420;50.876;7.012;2022-12-11T04:31:53;1.10;99.90
18581;DHT22;9420;50.876;7.012;2022-12-11T04:34:20;1.10;99.90
18581;DHT22;9420;50.876;7.012;2022-12-11T04:36:49;1.10;99.90
18581;DHT22;9420;50.876;7.012;2022-12-11T04:39:16;1.20;99.90
18581;DHT22;9420;50.876;7.012;2022-12-11T04:41:43;1.20;99.90
18581;DHT22;9420;50.876;7.012;2022-12-11T04:44:10;1.20;99.90
18581;DHT22;9420;50.876;7.012;2022-12-11T04:46:37;1.20;99.90
18581;DHT22;9420;50.876;7.012;2022-12-11T04:49:04;1.20;99.90
18581;DHT22;9420;50.876;7.012;2022-12-11T04:51:31;1.20;99.90
18581;DHT22;9420;50.876;7.012;2022-12-11T04:54:00;1.20;99.90
18581;DHT22;9420;50.876;7.012;2022-12-11T04:56:27;1.20;99.90
18581;DHT22;9420;50.876;7.012;2022-12-11T04:58:54;1.20;99.90
18581;DHT22;9420;50.876;7.012;2022-12-11T05:01:21;1.20;99.90
18581;DHT22;9420;50.876;7.012;2022-12-11T05:03:49;1.20;99.90
18581;DHT22;9420;50.876;7.012;2022-12-11T05:06:16;1.20;99.90
18581;DHT22;9420;50.876;7.012;2022-12-11T05:08:43;1.20;99.90
18581;DHT22;9420;50.876;7.012;2022-12-11T05:11:13;1.20;99.90
18581;DHT22;9420;50.876;7.012;2022-12-11T05:13:41;1.20;99.90
18581;DHT22;9420;50.876;7.012;2022-12-11T05:16:11;1.20;99.90
18581;DHT22;9420;50.876;7.012;2022-12-11T05:18:40;1.20;99.90
18581;DHT22;9420;50.876;7.012;2022-12-11T05:21:09;1.10;99.90
18581;DHT22;9420;50.876;7.012;2022-12-11T05:23:38;1.20;99.90
18581;DHT22;9420;50.876;7.012;2022-12-11T05:26:07;1.20;99.90
18581;DHT22;9420;50.876;7.012;2022-12-11T05:28:39;1.20;99.90
18581;DHT22;9420;50.876;7.012;2022-12-11T05:31:09;1.20;99.90
18581;DHT22;9420;50.876;7.012;2022-12-11T05:33:38;1.20;99.90
18581;DHT22;9420;50.876;7.012;2022-12-11T05:36:06;1.10;99.90
18581;DHT22;9420;50.876;7.012;2022-12-11T05:38:34;1.10;99.90
18581;DHT22;9420;50.876;7.012;2022-12-11T05:41:04;1.10;99.90
18581;DHT22;9420;50.876;7.012;2022-12-11T05:43:34;1.20;99.90
18581;DHT22;9420;50.876;7.012;2022-12-11T05:46:07;1.20;99.90
18581;DHT22;9420;50.876;7.012;2022-12-11T05:48:36;1.20;99.90
18581;DHT22;9420;50.876;7.012;2022-12-11T05:51:04;1.20;99.90
18581;DHT22;9420;50.876;7.012;2022-12-11T05:53:33;1.20;99.90
18581;DHT22;9420;50.876;7.012;2022-12-11T05:56:02;1.30;99.90
18581;DHT22;9420;50.876;7.012;2022-12-11T05:58:30;1.30;99.90
18581;DHT22;9420;50.876;7.012;2022-12-11T06:00:57;1.20;99.90
18581;DHT22;9420;50.876;7.012;2022-12-11T06:03:26;1.20;99.90
18581;DHT22;9420;50.876;7.012;2022-12-11T06:05:53;1.20;99.90
18581;DHT22;9420;50.876;7.012;2022-12-11T06:08:20;1.10;99.90
18581;DHT22;9420;50.876;7.012;2022-12-11T06:10:49;1.10;99.90
18581;DHT22;9420;50.876;7.012;2022-12-11T06:13:16;1.10;99.90
18581;DHT22;9420;50.876;7.012;2022-12-11T06:15:43;1.00;99.90
18581;DHT22;9420;50.876;7.012;2022-12-11T06:18:10;1.10;99.90
18581;DHT22;9420;50.876;7.012;2022-12-11T06:20:38;1.10;99.90
18581;DHT22;9420;50.876;7.012;2022-12-11T06:23:06;1.10;99.90
18581;DHT22;9420;50.876;7.012;2022-12-11T06:25:33;1.20;99.90
18581;DHT22;9420;50.876;7.012;2022-12-11T06:28:00;1.20;99.90
18581;DHT22;9420;50.876;7.012;2022-12-11T06:30:27;1.20;99.90
18581;DHT22;9420;50.876;7.012;2022-12-11T06:32:56;1.20;99.90
18581;DHT22;9420;50.876;7.012;2022-12-11T06:35:24;1.20;99.90
18581;DHT22;9420;50.876;7.012;2022-12-11T06:37:52;1.20;99.90
18581;DHT22;9420;50.876;7.012;2022-12-11T06:40:19;1.20;99.90
18581;DHT22;9420;50.876;7.012;2022-12-11T06:42:46;1.10;99.90
18581;DHT22;9420;50.876;7.012;2022-12-11T06:45:13;1.20;99.90
18581;DHT22;9420;50.876;7.012;2022-12-11T06:47:40;1.10;99.90
18581;DHT22;9420;50.876;7.012;2022-12-11T06:50:08;1.20;99.90
18581;DHT22;9420;50.876;7.012;2022-12-11T06:52:36;1.20;99.90
18581;DHT22;9420;50.876;7.012;2022-12-11T06:55:05;1.20;99.90
18581;DHT22;9420;50.876;7.012;2022-12-11T06:57:33;1.20;99.90
18581;DHT22;9420;50.876;7.012;2022-12-11T07:00:01;1.20;99.90
18581;DHT22;9420;50.876;7.012;2022-12-11T07:02:29;1.20;99.90
18581;DHT22;9420;50.876;7.012;2022-12-11T07:04:56;1.20;99.90
18581;DHT22;9420;50.876;7.012;2022-12-11T07:07:23;1.20;99.90
18581;DHT22;9420;50.876;7.012;2022-12-11T07:09:50;1.20;99.90
18581;DHT22;9420;50.876;7.012;2022-12-11T07:12:19;1.20;99.90
18581;DHT22;9420;50.876;7.012;2022-12-11T07:14:46;1.20;99.90
18581;DHT22;9420;50.876;7.012;2022-12-11T07:17:13;1.20;99.90
18581;DHT22;9420;50.876;7.012;2022-12-11T07:19:40;1.20;99.90
18581;DHT22;9420;50.876;7.012;2022-12-11T07:22:07;1.20;99.90
18581;DHT22;9420;50.876;7.012;2022-12-11T07:24:34;1.20;99.90
18581;DHT22;9420;50.876;7.012;2022-12-11T07:27:01;1.20;99.90
18581;DHT22;9420;50.876;7.012;2022-12-11T07:29:31;1.10;99.90
18581;DHT22;9420;50.876;7.012;2022-12-11T07:31:58;1.10;99.90
18581;DHT22;9420;50.876;7.012;2022-12-11T07:34:25;1.10;99.90
18581;DHT22;9420;50.876;7.012;2022-12-11T07:36:52;1.10;99.90
18581;DHT22;9420;50.876;7.012;2022-12-11T07:39:19;1.20;99.90
18581;DHT22;9420;50.876;7.012;2022-12-11T07:41:46;1.20;99.90
18581;DHT22;9420;50.876;7.012;2022-12-11T07:44:13;1.20;99.90
18581;DHT22;9420;50.876;7.012;2022-12-11T07:46:41;1.20;99.90
18581;DHT22;9420;50.876;7.012;2022-12-11T07:49:08;1.20;99.90
18581;DHT22;9420;50.876;7.012;2022-12-11T07:51:36;1.20;99.90
18581;DHT22;9420;50.876;7.012;2022-12-11T07:54:06;1.20;99.90
18581;DHT22;9420;50.876;7.012;2022-12-11T07:56:35;1.20;99.90
18581;DHT22;9420;50.876;7.012;2022-12-11T07:59:03;1.20;99.90
18581;DHT22;9420;50.876;7.012;2022-12-11T08:01:32;1.30;99.90
18581;DHT22;9420;50.876;7.012;2022-12-11T08:04:03;1.30;99.90
18581;DHT22;9420;50.876;7.012;2022-12-11T08:06:33;1.20;99.90
18581;DHT22;9420;50.876;7.012;2022-12-11T08:09:03;1.20;99.90
18581;DHT22;9420;50.876;7.012;2022-12-11T08:11:32;1.20;99.90
18581;DHT22;9420;50.876;7.012;2022-12-11T08:13:59;1.20;99.90
18581;DHT22;9420;50.876;7.012;2022-12-11T08:16:28;1.20;99.90
18581;DHT22;9420;50.876;7.012;2022-12-11T08:18:55;1.30;99.90
18581;DHT22;9420;50.876;7.012;2022-12-11T08:21:25;1.30;99.90
18581;DHT22;9420;50.876;7.012;2022-12-11T08:23:54;1.30;99.90
18581;DHT22;9420;50.876;7.012;2022-12-11T08:26:23;1.40;99.90
18581;DHT22;9420;50.876;7.012;2022-12-11T08:28:52;1.40;99.90
18581;DHT22;9420;50.876;7.012;2022-12-11T08:31:19;1.40;99.90
18581;DHT22;9420;50.876;7.012;2022-12-11T08:33:47;1.30;99.90
18581;DHT22;9420;50.876;7.012;2022-12-11T08:36:16;1.40;99.90
18581;DHT22;9420;50.876;7.012;2022-12-11T08:38:47;1.40;99.90
18581;DHT22;9420;50.876;7.012;2022-12-11T08:41:16;1.40;99.90
18581;DHT22;9420;50.876;7.012;2022-12-11T08:43:45;1.40;99.90
18581;DHT22;9420;50.876;7.012;2022-12-11T08:46:13;1.40;99.90
18581;DHT22;9420;50.876;7.012;2022-12-11T08:48:42;1.50;99.90
18581;DHT22;9420;50.876;7.012;2022-12-11T08:51:12;1.50;99.90
18581;DHT22;9420;50.876;7.012;2022-12-11T08:53:40;1.50;99.90
18581;DHT22;9420;50.876;7.012;2022-12-11T08:56:11;1.50;99.90
18581;DHT22;9420;50.876;7.012;2022-12-11T08:58:39;1.50;99.90
18581;DHT22;9420;50.876;7.012;2022-12-11T09:01:08;1.60;99.90
18581;DHT22;9420;50.876;7.012;2022-12-11T09:03:37;1.60;99.90
18581;DHT22;9420;50.876;7.012;2022-12-11T09:06:06;1.50;99.90
18581;DHT22;9420;50.876;7.012;2022-12-11T09:08:34;1.50;99.90
18581;DHT22;9420;50.876;7.012;2022-12-11T09:11:03;1.60;99.90
18581;DHT22;9420;50.876;7.012;2022-12-11T09:13:33;1.60;99.90
18581;DHT22;9420;50.876;7.012;2022-12-11T09:16:02;1.70;99.90
18581;DHT22;9420;50.876;7.012;2022-12-11T09:18:30;1.60;99.90
18581;DHT22;9420;50.876;7.012;2022-12-11T09:20:58;1.60;99.90
18581;DHT22;9420;50.876;7.012;2022-12-11T09:23:26;1.70;99.90
18581;DHT22;9420;50.876;7.012;2022-12-11T09:25:54;1.70;99.90
18581;DHT22;9420;50.876;7.012;2022-12-11T09:28:22;1.70;99.90
18581;DHT22;9420;50.876;7.012;2022-12-11T09:30:51;1.70;99.90
18581;DHT22;9420;50.876;7.012;2022-12-11T09:33:18;1.80;99.90
18581;DHT22;9420;50.876;7.012;2022-12-11T09:35:45;1.80;99.90
18581;DHT22;9420;50.876;7.012;2022-12-11T09:38:22;1.80;99.90
18581;DHT22;9420;50.876;7.012;2022-12-11T09:40:49;1.90;99.90
18581;DHT22;9420;50.876;7.012;2022-12-11T09:43:24;1.90;99.90
18581;DHT22;9420;50.876;7.012;2022-12-11T09:46:06;1.90;99.90
18581;DHT22;9420;50.876;7.012;2022-12-11T09:48:39;1.90;99.90
18581;DHT22;9420;50.876;7.012;2022-12-11T09:51:16;1.90;99.90
18581;DHT22;9420;50.876;7.012;2022-12-11T09:53:47;1.90;99.90
18581;DHT22;9420;50.876;7.012;2022-12-11T09:56:19;1.80;99.90
18581;DHT22;9420;50.876;7.012;2022-12-11T09:58:59;1.90;99.90
18581;DHT22;9420;50.876;7.012;2022-12-11T10:01:40;1.90;99.90
18581;DHT22;9420;50.876;7.012;2022-12-11T10:04:23;2.00;99.90
18581;DHT22;9420;50.876;7.012;2022-12-11T10:07:08;2.00;99.90
18581;DHT22;9420;50.876;7.012;2022-12-11T10:09:43;2.00;99.90
18581;DHT22;9420;50.876;7.012;2022-12-11T10:12:27;2.00;99.90
18581;DHT22;9420;50.876;7.012;2022-12-11T10:15:15;2.00;99.90
18581;DHT22;9420;50.876;7.012;2022-12-11T10:17:54;2.00;99.90
18581;DHT22;9420;50.876;7.012;2022-12-11T10:20:27;2.10;99.90
18581;DHT22;9420;50.876;7.012;2022-12-11T10:23:00;2.10;99.90
18581;DHT22;9420;50.876;7.012;2022-12-11T10:25:30;2.10;99.90
18581;DHT22;9420;50.876;7.012;2022-12-11T10:28:09;2.10;99.90
18581;DHT22;9420;50.876;7.012;2022-12-11T10:30:42;2.10;99.90
18581;DHT22;9420;50.876;7.012;2022-12-11T10:33:19;2.10;99.90
18581;DHT22;9420;50.876;7.012;2022-12-11T10:35:50;2.10;99.90
18581;DHT22;9420;50.876;7.012;2022-12-11T10:38:26;2.10;99.90
18581;DHT22;9420;50.876;7.012;2022-12-11T10:40:57;2.10;99.90
18581;DHT22;9420;50.876;7.012;2022-12-11T10:43:33;2.10;99.90
18581;DHT22;9420;50.876;7.012;2022-12-11T10:46:03;2.10;99.90
18581;DHT22;9420;50.876;7.012;2022-12-11T10:48:33;2.20;99.90
18581;DHT22;9420;50.876;7.012;2022-12-11T10:51:02;2.10;99.90
18581;DHT22;9420;50.876;7.012;2022-12-11T10:53:32;2.20;99.90
18581;DHT22;9420;50.876;7.012;2022-12-11T10:56:01;2.10;99.90
18581;DHT22;9420;50.876;7.012;2022-12-11T10:58:29;2.20;99.90
18581;DHT22;9420;50.876;7.012;2022-12-11T11:01:05;2.30;99.90
18581;DHT22;9420;50.876;7.012;2022-12-11T11:03:40;2.30;99.90
18581;DHT22;9420;50.876;7.012;2022-12-11T11:06:20;2.30;99.90
18581;DHT22;9420;50.876;7.012;2022-12-11T11:08:49;2.40;99.90
18581;DHT22;9420;50.876;7.012;2022-12-11T11:11:25;2.40;99.90
18581;DHT22;9420;50.876;7.012;2022-12-11T11:14:05;2.40;99.90
18581;DHT22;9420;50.876;7.012;2022-12-11T11:16:44;2.50;99.90
18581;DHT22;9420;50.876;7.012;2022-12-11T11:19:22;2.60;99.90
18581;DHT22;9420;50.876;7.012;2022-12-11T11:21:55;2.70;99.90
18581;DHT22;9420;50.876;7.012;2022-12-11T11:24:29;2.80;99.90
18581;DHT22;9420;50.876;7.012;2022-12-11T11:26:59;3.10;99.90
18581;DHT22;9420;50.876;7.012;2022-12-11T11:29:29;3.30;99.90
18581;DHT22;9420;50.876;7.012;2022-12-11T11:32:11;3.40;99.90
18581;DHT22;9420;50.876;7.012;2022-12-11T11:34:43;3.60;99.90
18581;DHT22;9420;50.876;7.012;2022-12-11T11:37:31;3.70;99.90
18581;DHT22;9420;50.876;7.012;2022-12-11T11:40:04;3.90;99.90
18581;DHT22;9420;50.876;7.012;2022-12-11T11:42:42;3.90;99.90
18581;DHT22;9420;50.876;7.012;2022-12-11T11:45:15;3.90;99.90
18581;DHT22;9420;50.876;7.012;2022-12-11T11:47:52;3.90;99.90
18581;DHT22;9420;50.876;7.012;2022-12-11T11:50:34;3.80;99.90
18581;DHT22;9420;50.876;7.012;2022-12-11T11:53:04;3.80;99.90
18581;DHT22;9420;50.876;7.012;2022-12-11T11:55:40;3.80;99.90
18581;DHT22;9420;50.876;7.012;2022-12-11T11:58:21;3.80;99.90
18581;DHT22;9420;50.876;7.012;2022-12-11T12:00:54;3.60;99.90
18581;DHT22;9420;50.876;7.012;2022-12-11T12:03:23;3.50;99.90
18581;DHT22;9420;50.876;7.012;2022-12-11T12:05:56;3.30;99.90
18581;DHT22;9420;50.876;7.012;2022-12-11T12:08:40;3.30;99.90
18581;DHT22;9420;50.876;7.012;2022-12-11T12:11:20;3.20;99.90
18581;DHT22;9420;50.876;7.012;2022-12-11T12:14:01;3.20;99.90
18581;DHT22;9420;50.876;7.012;2022-12-11T12:16:42;3.20;99.90
18581;DHT22;9420;50.876;7.012;2022-12-11T12:19:25;3.10;99.90
18581;DHT22;9420;50.876;7.012;2022-12-11T12:22:13;3.00;99.90
18581;DHT22;9420;50.876;7.012;2022-12-11T12:25:00;2.90;99.90
18581;DHT22;9420;50.876;7.012;2022-12-11T12:27:44;2.80;99.90
18581;DHT22;9420;50.876;7.012;2022-12-11T12:30:17;2.80;99.90
18581;DHT22;9420;50.876;7.012;2022-12-11T12:32:55;2.80;99.90
18581;DHT22;9420;50.876;7.012;2022-12-11T12:35:36;2.80;99.90
18581;DHT22;9420;50.876;7.012;2022-12-11T12:38:13;2.70;99.90
18581;DHT22;9420;50.876;7.012;2022-12-11T12:40:55;2.70;99.90
18581;DHT22;9420;50.876;7.012;2022-12-11T12:43:49;2.80;99.90
18581;DHT22;9420;50.876;7.012;2022-12-11T12:46:40;3.00;99.90
18581;DHT22;9420;50.876;7.012;2022-12-11T12:49:24;4.00;99.90
18581;DHT22;9420;50.876;7.012;2022-12-11T12:51:59;4.30;99.90
18581;DHT22;9420;50.876;7.012;2022-12-11T12:54:30;4.20;99.90
18581;DHT22;9420;50.876;7.012;2022-12-11T12:57:01;4.00;99.90
18581;DHT22;9420;50.876;7.012;2022-12-11T12:59:30;3.90;99.90
18581;DHT22;9420;50.876;7.012;2022-12-11T13:01:59;3.80;99.90
18581;DHT22;9420;50.876;7.012;2022-12-11T13:04:38;3.70;99.90
18581;DHT22;9420;50.876;7.012;2022-12-11T13:07:12;3.60;99.90
18581;DHT22;9420;50.876;7.012;2022-12-11T13:09:57;3.50;99.90
18581;DHT22;9420;50.876;7.012;2022-12-11T13:12:42;3.50;99.90
18581;DHT22;9420;50.876;7.012;2022-12-11T13:15:29;3.50;99.90
18581;DHT22;9420;50.876;7.012;2022-12-11T13:18:00;3.70;99.90
18581;DHT22;9420;50.876;7.012;2022-12-11T13:20:32;3.80;99.90
18581;DHT22;9420;50.876;7.012;2022-12-11T13:23:18;3.90;99.90
18581;DHT22;9420;50.876;7.012;2022-12-11T13:25:54;3.90;99.90
18581;DHT22;9420;50.876;7.012;2022-12-11T13:28:32;3.70;99.90
18581;DHT22;9420;50.876;7.012;2022-12-11T13:31:35;3.50;99.90
18581;DHT22;9420;50.876;7.012;2022-12-11T13:34:12;3.30;99.90
18581;DHT22;9420;50.876;7.012;2022-12-11T13:36:46;3.30;99.90
18581;DHT22;9420;50.876;7.012;2022-12-11T13:39:17;3.30;99.90
18581;DHT22;9420;50.876;7.012;2022-12-11T13:41:51;3.30;99.90
18581;DHT22;9420;50.876;7.012;2022-12-11T13:44:24;3.40;99.90
18581;DHT22;9420;50.876;7.012;2022-12-11T13:46:55;3.50;99.90
18581;DHT22;9420;50.876;7.012;2022-12-11T13:49:26;3.50;99.90
18581;DHT22;9420;50.876;7.012;2022-12-11T13:52:00;3.60;99.90
18581;DHT22;9420;50.876;7.012;2022-12-11T13:54:31;3.60;99.90
18581;DHT22;9420;50.876;7.012;2022-12-11T13:57:11;3.60;99.90
18581;DHT22;9420;50.876;7.012;2022-12-11T13:59:46;3.50;99.90
18581;DHT22;9420;50.876;7.012;2022-12-11T14:02:19;3.30;99.90
18581;DHT22;9420;50.876;7.012;2022-12-11T14:04:51;3.30;99.90
18581;DHT22;9420;50.876;7.012;2022-12-11T14:07:25;3.20;99.90
18581;DHT22;9420;50.876;7.012;2022-12-11T14:09:59;3.20;99.90
18581;DHT22;9420;50.876;7.012;2022-12-11T14:12:32;3.10;99.90
18581;DHT22;9420;50.876;7.012;2022-12-11T14:15:00;3.10;99.90
18581;DHT22;9420;50.876;7.012;2022-12-11T14:17:31;3.00;99.90
18581;DHT22;9420;50.876;7.012;2022-12-11T14:20:02;2.90;99.90
18581;DHT22;9420;50.876;7.012;2022-12-11T14:22:32;2.90;99.90
18581;DHT22;9420;50.876;7.012;2022-12-11T14:25:01;2.90;99.90
18581;DHT22;9420;50.876;7.012;2022-12-11T14:27:47;2.90;99.90
18581;DHT22;9420;50.876;7.012;2022-12-11T14:30:23;2.80;99.90
18581;DHT22;9420;50.876;7.012;2022-12-11T14:32:55;2.80;99.90
18581;DHT22;9420;50.876;7.012;2022-12-11T14:35:26;2.70;99.90
18581;DHT22;9420;50.876;7.012;2022-12-11T14:37:57;2.80;99.90
18581;DHT22;9420;50.876;7.012;2022-12-11T14:40:30;2.70;99.90
18581;DHT22;9420;50.876;7.012;2022-12-11T14:43:08;2.70;99.90
18581;DHT22;9420;50.876;7.012;2022-12-11T14:45:43;2.70;99.90
18581;DHT22;9420;50.876;7.012;2022-12-11T14:48:18;2.70;99.90
18581;DHT22;9420;50.876;7.012;2022-12-11T14:50:51;2.60;99.90
18581;DHT22;9420;50.876;7.012;2022-12-11T14:53:22;2.60;99.90
18581;DHT22;9420;50.876;7.012;2022-12-11T14:55:54;2.60;99.90
18581;DHT22;9420;50.876;7.012;2022-12-11T14:58:27;2.50;99.90
18581;DHT22;9420;50.876;7.012;2022-12-11T15:00:56;2.60;99.90
18581;DHT22;9420;50.876;7.012;2022-12-11T15:03:30;2.60;99.90
18581;DHT22;9420;50.876;7.012;2022-12-11T15:05:59;2.60;99.90
18581;DHT22;9420;50.876;7.012;2022-12-11T15:08:28;2.60;99.90
18581;DHT22;9420;50.876;7.012;2022-12-11T15:11:04;2.60;99.90
18581;DHT22;9420;50.876;7.012;2022-12-11T15:13:38;2.60;99.90
18581;DHT22;9420;50.876;7.012;2022-12-11T15:16:17;2.50;99.90
18581;DHT22;9420;50.876;7.012;2022-12-11T15:18:48;2.50;99.90
18581;DHT22;9420;50.876;7.012;2022-12-11T15:21:17;2.50;99.90
18581;DHT22;9420;50.876;7.012;2022-12-11T15:23:55;2.50;99.90
18581;DHT22;9420;50.876;7.012;2022-12-11T15:26:32;2.50;99.90
18581;DHT22;9420;50.876;7.012;2022-12-11T15:29:04;2.50;99.90
18581;DHT22;9420;50.876;7.012;2022-12-11T15:31:33;2.50;99.90
18581;DHT22;9420;50.876;7.012;2022-12-11T15:34:01;2.50;99.90
18581;DHT22;9420;50.876;7.012;2022-12-11T15:36:31;2.50;99.90
18581;DHT22;9420;50.876;7.012;2022-12-11T15:39:00;2.50;99.90
18581;DHT22;9420;50.876;7.012;2022-12-11T15:41:28;2.40;99.90
18581;DHT22;9420;50.876;7.012;2022-12-11T15:44:00;2.40;99.90
18581;DHT22;9420;50.876;7.012;2022-12-11T15:46:35;2.40;99.90
18581;DHT22;9420;50.876;7.012;2022-12-11T15:49:08;2.40;99.90
18581;DHT22;9420;50.876;7.012;2022-12-11T15:51:37;2.40;99.90
18581;DHT22;9420;50.876;7.012;2022-12-11T15:54:05;2.40;99.90
18581;DHT22;9420;50.876;7.012;2022-12-11T15:56:32;2.40;99.90
18581;DHT22;9420;50.876;7.012;2022-12-11T15:59:02;2.40;99.90
18581;DHT22;9420;50.876;7.012;2022-12-11T16:01:31;2.40;99.90
18581;DHT22;9420;50.876;7.012;2022-12-11T16:03:59;2.40;99.90
18581;DHT22;9420;50.876;7.012;2022-12-11T16:06:26;2.30;99.90
18581;DHT22;9420;50.876;7.012;2022-12-11T16:08:53;2.40;99.90
18581;DHT22;9420;50.876;7.012;2022-12-11T16:11:21;2.40;99.90
18581;DHT22;9420;50.876;7.012;2022-12-11T16:13:48;2.40;99.90
18581;DHT22;9420;50.876;7.012;2022-12-11T16:16:15;2.40;99.90
18581;DHT22;9420;50.876;7.012;2022-12-11T16:18:42;2.40;99.90
18581;DHT22;9420;50.876;7.012;2022-12-11T16:21:11;2.40;99.90
18581;DHT22;9420;50.876;7.012;2022-12-11T16:23:38;2.40;99.90
18581;DHT22;9420;50.876;7.012;2022-12-11T16:26:06;2.40;99.90
18581;DHT22;9420;50.876;7.012;2022-12-11T16:28:34;2.40;99.90
18581;DHT22;9420;50.876;7.012;2022-12-11T16:31:02;2.40;99.90
18581;DHT22;9420;50.876;7.012;2022-12-11T16:33:29;2.40;99.90